sensor_id;sensor_type;location;lat;lon;timestamp;pressure;altitude;pressure_sealevel;temperature;humidity
77323;BME280;66384;51.052;9.850;2023-02-01T00:00:17;98722.84;;;3.25;72.65
77323;BME280;66384;51.052;9.850;2023-02-01T00:02:47;98726.11;;;3.26;72.72
77323;BME280;66384;51.052;9.850;2023-02-01T00:05:16;98721.57;;;3.27;72.57
77323;BME280;66384;51.052;9.850;2023-02-01T00:07:47;98717.61;;;3.29;72.57
77323;BME280;66384;51.052;9.850;2023-02-01T00:10:17;98714.41;;;3.30;72.72
77323;BME280;66384;51.052;9.850;2023-02-01T00:12:47;98711.92;;;3.31;72.65
77323;BME280;66384;51.052;9.850;2023-02-01T00:15:16;98712.02;;;3.33;72.51
77323;BME280;66384;51.052;9.850;2023-02-01T00:17:46;98714.89;;;3.35;72.69
77323;BME280;66384;51.052;9.850;2023-02-01T00:20:15;98715.63;;;3.37;72.61
77323;BME280;66384;51.052;9.850;2023-02-01T00:22:44;98714.50;;;3.37;72.74
77323;BME280;66384;51.052;9.850;2023-02-01T00:25:13;98715.99;;;3.40;72.51
77323;BME280;66384;51.052;9.850;2023-02-01T00:27:43;98716.45;;;3.42;72.39
77323;BME280;66384;51.052;9.850;2023-02-01T00:30:14;98711.66;;;3.45;72.53
77323;BME280;66384;51.052;9.850;2023-02-01T00:32:43;98708.88;;;3.47;72.26
77323;BME280;66384;51.052;9.850;2023-02-01T00:35:12;98713.72;;;3.48;72.14
77323;BME280;66384;51.052;9.850;2023-02-01T00:37:42;98716.89;;;3.50;72.03
77323;BME280;66384;51.052;9.850;2023-02-01T00:40:12;98713.88;;;3.51;71.78
77323;BME280;66384;51.052;9.850;2023-02-01T00:42:42;98719.45;;;3.54;71.97
77323;BME280;66384;51.052;9.850;2023-02-01T00:45:11;98726.16;;;3.55;71.87
77323;BME280;66384;51.052;9.850;2023-02-01T00:47:41;98724.20;;;3.56;71.95
77323;BME280;66384;51.052;9.850;2023-02-01T00:50:11;98722.91;;;3.57;71.78
77323;BME280;66384;51.052;9.850;2023-02-01T00:52:40;98723.30;;;3.58;71.82
77323;BME280;66384;51.052;9.850;2023-02-01T00:55:10;98720.48;;;3.60;71.81
77323;BME280;66384;51.052;9.850;2023-02-01T00:57:39;98719.38;;;3.61;71.67
77323;BME280;66384;51.052;9.850;2023-02-01T01:00:11;98719.40;;;3.62;71.69
77323;BME280;66384;51.052;9.850;2023-02-01T01:02:40;98714.22;;;3.64;71.43
77323;BME280;66384;51.052;9.850;2023-02-01T01:05:10;98712.64;;;3.66;71.48
77323;BME280;66384;51.052;9.850;2023-02-01T01:07:39;98711.31;;;3.67;71.76
77323;BME280;66384;51.052;9.850;2023-02-01T01:10:10;98716.98;;;3.68;71.67
77323;BME280;66384;51.052;9.850;2023-02-01T01:12:40;98714.30;;;3.69;71.62
77323;BME280;66384;51.052;9.850;2023-02-01T01:15:11;98719.41;;;3.69;71.52
77323;BME280;66384;51.052;9.850;2023-02-01T01:17:40;98720.30;;;3.70;71.39
77323;BME280;66384;51.052;9.850;2023-02-01T01:20:11;98725.95;;;3.71;71.58
77323;BME280;66384;51.052;9.850;2023-02-01T01:22:41;98722.41;;;3.71;71.59
77323;BME280;66384;51.052;9.850;2023-02-01T01:25:10;98725.43;;;3.71;71.61
77323;BME280;66384;51.052;9.850;2023-02-01T01:27:39;98728.66;;;3.70;71.52
77323;BME280;66384;51.052;9.850;2023-02-01T01:30:11;98730.00;;;3.70;71.35
77323;BME280;66384;51.052;9.850;2023-02-01T01:32:40;98725.34;;;3.69;71.48
77323;BME280;66384;51.052;9.850;2023-02-01T01:35:10;98727.92;;;3.69;71.52
77323;BME280;66384;51.052;9.850;2023-02-01T01:37:40;98721.11;;;3.69;71.56
77323;BME280;66384;51.052;9.850;2023-02-01T01:40:11;98714.54;;;3.70;71.50
77323;BME280;66384;51.052;9.850;2023-02-01T01:42:42;98709.17;;;3.71;71.68
77323;BME280;66384;51.052;9.850;2023-02-01T01:45:22;98709.14;;;3.71;71.84
77323;BME280;66384;51.052;9.850;2023-02-01T01:47:54;98703.99;;;3.70;71.70
77323;BME280;66384;51.052;9.850;2023-02-01T01:50:26;98704.46;;;3.70;72.01
77323;BME280;66384;51.052;9.850;2023-02-01T01:52:59;98702.11;;;3.70;72.10
77323;BME280;66384;51.052;9.850;2023-02-01T01:55:31;98696.02;;;3.70;72.24
77323;BME280;66384;51.052;9.850;2023-02-01T01:58:04;98690.13;;;3.72;72.17
77323;BME280;66384;51.052;9.850;2023-02-01T02:00:34;98683.05;;;3.73;72.19
77323;BME280;66384;51.052;9.850;2023-02-01T02:03:08;98671.48;;;3.73;72.40
77323;BME280;66384;51.052;9.850;2023-02-01T02:05:40;98669.13;;;3.73;72.24
77323;BME280;66384;51.052;9.850;2023-02-01T02:08:10;98667.70;;;3.72;72.22
77323;BME280;66384;51.052;9.850;2023-02-01T02:10:40;98668.14;;;3.71;72.48
77323;BME280;66384;51.052;9.850;2023-02-01T02:13:27;98670.02;;;3.71;72.67
77323;BME280;66384;51.052;9.850;2023-02-01T02:16:09;98676.56;;;3.69;72.82
77323;BME280;66384;51.052;9.850;2023-02-01T02:18:46;98680.15;;;3.70;72.97
77323;BME280;66384;51.052;9.850;2023-02-01T02:21:35;98679.09;;;3.69;73.06
77323;BME280;66384;51.052;9.850;2023-02-01T02:27:23;98671.27;;;3.65;73.77
77323;BME280;66384;51.052;9.850;2023-02-01T02:30:20;98658.33;;;3.62;74.07
77323;BME280;66384;51.052;9.850;2023-02-01T02:36:03;98653.66;;;3.54;74.44
77323;BME280;66384;51.052;9.850;2023-02-01T02:38:41;98648.45;;;3.52;74.74
77323;BME280;66384;51.052;9.850;2023-02-01T02:41:17;98643.11;;;3.51;74.82
77323;BME280;66384;51.052;9.850;2023-02-01T02:44:08;98644.11;;;3.50;75.06
77323;BME280;66384;51.052;9.850;2023-02-01T02:47:02;98634.82;;;3.48;75.30
77323;BME280;66384;51.052;9.850;2023-02-01T02:49:58;98627.96;;;3.47;75.33
77323;BME280;66384;51.052;9.850;2023-02-01T02:52:53;98617.00;;;3.45;75.51
77323;BME280;66384;51.052;9.850;2023-02-01T02:55:44;98610.85;;;3.45;75.45
77323;BME280;66384;51.052;9.850;2023-02-01T02:58:14;98613.58;;;3.45;75.63
77323;BME280;66384;51.052;9.850;2023-02-01T03:01:04;98610.80;;;3.47;75.56
77323;BME280;66384;51.052;9.850;2023-02-01T03:03:52;98604.46;;;3.50;75.55
77323;BME280;66384;51.052;9.850;2023-02-01T03:06:37;98602.02;;;3.51;75.55
77323;BME280;66384;51.052;9.850;2023-02-01T03:09:11;98601.05;;;3.52;75.46
77323;BME280;66384;51.052;9.850;2023-02-01T03:11:46;98602.71;;;3.52;75.24
77323;BME280;66384;51.052;9.850;2023-02-01T03:14:36;98602.05;;;3.52;74.87
77323;BME280;66384;51.052;9.850;2023-02-01T03:17:10;98601.73;;;3.53;74.42
77323;BME280;66384;51.052;9.850;2023-02-01T03:19:45;98601.41;;;3.53;74.36
77323;BME280;66384;51.052;9.850;2023-02-01T03:22:20;98602.13;;;3.54;73.83
77323;BME280;66384;51.052;9.850;2023-02-01T03:24:53;98595.31;;;3.53;73.36
77323;BME280;66384;51.052;9.850;2023-02-01T03:27:24;98599.45;;;3.54;73.33
77323;BME280;66384;51.052;9.850;2023-02-01T03:30:02;98606.67;;;3.56;73.05
77323;BME280;66384;51.052;9.850;2023-02-01T03:32:34;98608.47;;;3.58;72.95
77323;BME280;66384;51.052;9.850;2023-02-01T03:35:30;98605.68;;;3.60;72.79
77323;BME280;66384;51.052;9.850;2023-02-01T03:38:08;98603.96;;;3.59;72.93
77323;BME280;66384;51.052;9.850;2023-02-01T03:40:40;98603.01;;;3.60;72.86
77323;BME280;66384;51.052;9.850;2023-02-01T03:43:14;98599.84;;;3.62;72.36
77323;BME280;66384;51.052;9.850;2023-02-01T03:45:49;98584.15;;;3.64;72.58
77323;BME280;66384;51.052;9.850;2023-02-01T03:48:22;98586.31;;;3.67;72.52
77323;BME280;66384;51.052;9.850;2023-02-01T03:50:55;98577.70;;;3.68;72.25
77323;BME280;66384;51.052;9.850;2023-02-01T03:53:26;98573.50;;;3.69;72.20
77323;BME280;66384;51.052;9.850;2023-02-01T03:55:57;98581.73;;;3.71;72.11
77323;BME280;66384;51.052;9.850;2023-02-01T03:58:27;98586.95;;;3.73;71.86
77323;BME280;66384;51.052;9.850;2023-02-01T04:00:57;98588.20;;;3.74;71.25
77323;BME280;66384;51.052;9.850;2023-02-01T04:03:28;98589.34;;;3.76;71.40
77323;BME280;66384;51.052;9.850;2023-02-01T04:05:57;98584.34;;;3.78;71.20
77323;BME280;66384;51.052;9.850;2023-02-01T04:08:27;98583.73;;;3.79;71.01
77323;BME280;66384;51.052;9.850;2023-02-01T04:10:56;98578.38;;;3.81;71.20
77323;BME280;66384;51.052;9.850;2023-02-01T04:13:25;98571.60;;;3.82;70.98
77323;BME280;66384;51.052;9.850;2023-02-01T04:15:54;98570.46;;;3.83;71.16
77323;BME280;66384;51.052;9.850;2023-02-01T04:18:24;98566.57;;;3.83;70.82
77323;BME280;66384;51.052;9.850;2023-02-01T04:20:53;98566.55;;;3.83;70.58
77323;BME280;66384;51.052;9.850;2023-02-01T04:23:22;98561.67;;;3.84;70.75
77323;BME280;66384;51.052;9.850;2023-02-01T04:25:51;98559.59;;;3.83;70.42
77323;BME280;66384;51.052;9.850;2023-02-01T04:28:21;98557.56;;;3.83;69.89
77323;BME280;66384;51.052;9.850;2023-02-01T04:30:50;98561.33;;;3.84;70.07
77323;BME280;66384;51.052;9.850;2023-02-01T04:33:19;98554.71;;;3.84;70.06
77323;BME280;66384;51.052;9.850;2023-02-01T04:35:48;98547.92;;;3.84;69.73
77323;BME280;66384;51.052;9.850;2023-02-01T04:38:17;98550.02;;;3.85;69.48
77323;BME280;66384;51.052;9.850;2023-02-01T04:40:49;98551.17;;;3.85;69.83
77323;BME280;66384;51.052;9.850;2023-02-01T04:43:18;98549.35;;;3.86;69.70
77323;BME280;66384;51.052;9.850;2023-02-01T04:45:51;98547.94;;;3.85;69.47
77323;BME280;66384;51.052;9.850;2023-02-01T04:48:22;98541.98;;;3.85;69.66
77323;BME280;66384;51.052;9.850;2023-02-01T04:50:51;98539.63;;;3.85;69.46
77323;BME280;66384;51.052;9.850;2023-02-01T04:53:21;98537.59;;;3.85;69.90
77323;BME280;66384;51.052;9.850;2023-02-01T04:55:50;98533.18;;;3.86;69.73
77323;BME280;66384;51.052;9.850;2023-02-01T04:58:19;98537.27;;;3.86;69.39
77323;BME280;66384;51.052;9.850;2023-02-01T05:00:49;98529.98;;;3.86;69.67
77323;BME280;66384;51.052;9.850;2023-02-01T05:03:19;98524.46;;;3.88;69.78
77323;BME280;66384;51.052;9.850;2023-02-01T05:05:50;98527.20;;;3.88;69.54
77323;BME280;66384;51.052;9.850;2023-02-01T05:08:21;98517.30;;;3.88;69.73
77323;BME280;66384;51.052;9.850;2023-02-01T05:10:50;98520.04;;;3.88;69.68
77323;BME280;66384;51.052;9.850;2023-02-01T05:13:19;98519.36;;;3.88;68.94
77323;BME280;66384;51.052;9.850;2023-02-01T05:16:18;98526.23;;;3.89;69.28
77323;BME280;66384;51.052;9.850;2023-02-01T05:18:47;98530.96;;;3.89;68.84
77323;BME280;66384;51.052;9.850;2023-02-01T05:21:16;98525.71;;;3.89;69.11
77323;BME280;66384;51.052;9.850;2023-02-01T05:23:46;98529.34;;;3.91;68.98
77323;BME280;66384;51.052;9.850;2023-02-01T05:26:33;98523.11;;;3.92;68.73
77323;BME280;66384;51.052;9.850;2023-02-01T05:29:02;98513.96;;;3.93;68.65
77323;BME280;66384;51.052;9.850;2023-02-01T05:31:31;98504.30;;;3.93;68.36
77323;BME280;66384;51.052;9.850;2023-02-01T05:34:01;98495.50;;;3.95;68.36
77323;BME280;66384;51.052;9.850;2023-02-01T05:36:30;98488.54;;;3.95;68.38
77323;BME280;66384;51.052;9.850;2023-02-01T05:39:00;98484.81;;;3.95;68.45
77323;BME280;66384;51.052;9.850;2023-02-01T05:41:29;98490.45;;;3.96;67.62
77323;BME280;66384;51.052;9.850;2023-02-01T05:43:58;98478.85;;;3.95;67.77
77323;BME280;66384;51.052;9.850;2023-02-01T05:46:27;98485.99;;;3.95;67.72
77323;BME280;66384;51.052;9.850;2023-02-01T05:48:57;98488.52;;;3.94;67.63
77323;BME280;66384;51.052;9.850;2023-02-01T05:51:26;98490.88;;;3.94;67.76
77323;BME280;66384;51.052;9.850;2023-02-01T05:53:55;98490.15;;;3.93;67.68
77323;BME280;66384;51.052;9.850;2023-02-01T05:56:25;98491.02;;;3.93;67.60
77323;BME280;66384;51.052;9.850;2023-02-01T05:58:54;98491.23;;;3.94;67.57
77323;BME280;66384;51.052;9.850;2023-02-01T06:01:23;98490.60;;;3.95;67.65
77323;BME280;66384;51.052;9.850;2023-02-01T06:03:52;98491.48;;;3.96;67.62
77323;BME280;66384;51.052;9.850;2023-02-01T06:06:22;98490.81;;;3.96;67.83
77323;BME280;66384;51.052;9.850;2023-02-01T06:08:51;98488.42;;;3.96;66.88
77323;BME280;66384;51.052;9.850;2023-02-01T06:11:20;98480.92;;;3.96;66.99
77323;BME280;66384;51.052;9.850;2023-02-01T06:13:49;98479.25;;;3.96;67.03
77323;BME280;66384;51.052;9.850;2023-02-01T06:16:19;98471.91;;;3.96;66.92
77323;BME280;66384;51.052;9.850;2023-02-01T06:18:48;98478.38;;;3.96;67.38
77323;BME280;66384;51.052;9.850;2023-02-01T06:21:18;98477.95;;;3.94;67.13
77323;BME280;66384;51.052;9.850;2023-02-01T06:23:52;98477.60;;;3.94;66.89
77323;BME280;66384;51.052;9.850;2023-02-01T06:26:21;98473.99;;;3.93;67.03
77323;BME280;66384;51.052;9.850;2023-02-01T06:28:51;98473.43;;;3.92;67.00
77323;BME280;66384;51.052;9.850;2023-02-01T06:31:20;98470.67;;;3.91;67.03
77323;BME280;66384;51.052;9.850;2023-02-01T06:33:49;98476.94;;;3.91;67.18
77323;BME280;66384;51.052;9.850;2023-02-01T06:36:20;98471.98;;;3.90;67.39
77323;BME280;66384;51.052;9.850;2023-02-01T06:38:49;98482.17;;;3.90;67.20
77323;BME280;66384;51.052;9.850;2023-02-01T06:41:19;98482.14;;;3.89;67.12
77323;BME280;66384;51.052;9.850;2023-02-01T06:43:48;98484.82;;;3.88;66.79
77323;BME280;66384;51.052;9.850;2023-02-01T06:46:18;98483.68;;;3.89;67.44
77323;BME280;66384;51.052;9.850;2023-02-01T06:48:47;98485.91;;;3.90;67.25
77323;BME280;66384;51.052;9.850;2023-02-01T06:51:22;98478.75;;;3.89;67.02
77323;BME280;66384;51.052;9.850;2023-02-01T06:53:52;98478.55;;;3.88;67.18
77323;BME280;66384;51.052;9.850;2023-02-01T06:56:22;98474.98;;;3.89;67.16
77323;BME280;66384;51.052;9.850;2023-02-01T06:58:51;98469.40;;;3.90;67.30
77323;BME280;66384;51.052;9.850;2023-02-01T07:01:20;98468.84;;;3.88;67.25
77323;BME280;66384;51.052;9.850;2023-02-01T07:03:51;98477.16;;;3.88;67.40
77323;BME280;66384;51.052;9.850;2023-02-01T07:06:20;98484.15;;;3.88;67.66
77323;BME280;66384;51.052;9.850;2023-02-01T07:08:50;98487.73;;;3.88;67.72
77323;BME280;66384;51.052;9.850;2023-02-01T07:11:20;98487.58;;;3.89;67.78
77323;BME280;66384;51.052;9.850;2023-02-01T07:13:49;98487.58;;;3.89;67.89
77323;BME280;66384;51.052;9.850;2023-02-01T07:16:20;98495.27;;;3.90;67.66
77323;BME280;66384;51.052;9.850;2023-02-01T07:18:51;98493.72;;;3.90;67.98
77323;BME280;66384;51.052;9.850;2023-02-01T07:21:20;98494.06;;;3.89;67.91
77323;BME280;66384;51.052;9.850;2023-02-01T07:23:50;98501.20;;;3.89;68.22
77323;BME280;66384;51.052;9.850;2023-02-01T07:26:21;98492.06;;;3.90;68.60
77323;BME280;66384;51.052;9.850;2023-02-01T07:28:50;98494.47;;;3.91;68.53
77323;BME280;66384;51.052;9.850;2023-02-01T07:31:20;98502.74;;;3.89;68.60
77323;BME280;66384;51.052;9.850;2023-02-01T07:33:50;98506.81;;;3.89;68.74
77323;BME280;66384;51.052;9.850;2023-02-01T07:36:20;98503.04;;;3.88;68.97
77323;BME280;66384;51.052;9.850;2023-02-01T07:38:50;98512.73;;;3.88;69.02
77323;BME280;66384;51.052;9.850;2023-02-01T07:41:19;98512.88;;;3.88;69.06
77323;BME280;66384;51.052;9.850;2023-02-01T07:43:49;98504.27;;;3.89;69.23
77323;BME280;66384;51.052;9.850;2023-02-01T07:46:21;98508.35;;;3.90;69.32
77323;BME280;66384;51.052;9.850;2023-02-01T07:48:50;98507.82;;;3.89;69.33
77323;BME280;66384;51.052;9.850;2023-02-01T07:51:19;98513.27;;;3.89;69.63
77323;BME280;66384;51.052;9.850;2023-02-01T07:53:48;98518.58;;;3.90;69.47
77323;BME280;66384;51.052;9.850;2023-02-01T07:56:19;98529.22;;;3.92;69.69
77323;BME280;66384;51.052;9.850;2023-02-01T07:58:51;98543.89;;;3.92;70.02
77323;BME280;66384;51.052;9.850;2023-02-01T08:01:22;98546.80;;;3.93;70.23
77323;BME280;66384;51.052;9.850;2023-02-01T08:03:54;98556.13;;;3.92;70.64
77323;BME280;66384;51.052;9.850;2023-02-01T08:06:24;98562.19;;;3.91;71.00
77323;BME280;66384;51.052;9.850;2023-02-01T08:08:54;98561.88;;;3.88;71.41
77323;BME280;66384;51.052;9.850;2023-02-01T08:11:25;98563.46;;;3.86;71.85
77323;BME280;66384;51.052;9.850;2023-02-01T08:13:55;98564.95;;;3.81;72.42
77323;BME280;66384;51.052;9.850;2023-02-01T08:16:24;98564.55;;;3.77;72.57
77323;BME280;66384;51.052;9.850;2023-02-01T08:18:54;98566.94;;;3.74;72.50
77323;BME280;66384;51.052;9.850;2023-02-01T08:21:25;98560.85;;;3.71;72.97
77323;BME280;66384;51.052;9.850;2023-02-01T08:23:56;98567.92;;;3.70;73.13
77323;BME280;66384;51.052;9.850;2023-02-01T08:26:26;98573.56;;;3.71;73.45
77323;BME280;66384;51.052;9.850;2023-02-01T08:28:58;98579.82;;;3.70;73.61
77323;BME280;66384;51.052;9.850;2023-02-01T08:31:29;98584.69;;;3.68;74.04
77323;BME280;66384;51.052;9.850;2023-02-01T08:34:00;98582.20;;;3.66;74.10
77323;BME280;66384;51.052;9.850;2023-02-01T08:36:32;98579.98;;;3.66;73.85
77323;BME280;66384;51.052;9.850;2023-02-01T08:39:02;98586.29;;;3.67;74.16
77323;BME280;66384;51.052;9.850;2023-02-01T08:41:37;98586.63;;;3.66;74.06
77323;BME280;66384;51.052;9.850;2023-02-01T08:44:06;98589.23;;;3.68;73.89
77323;BME280;66384;51.052;9.850;2023-02-01T08:46:36;98589.88;;;3.70;74.07
77323;BME280;66384;51.052;9.850;2023-02-01T08:49:05;98586.73;;;3.72;73.91
77323;BME280;66384;51.052;9.850;2023-02-01T08:51:34;98585.31;;;3.74;74.31
77323;BME280;66384;51.052;9.850;2023-02-01T08:54:04;98586.89;;;3.78;74.23
77323;BME280;66384;51.052;9.850;2023-02-01T08:56:33;98589.59;;;3.81;74.23
77323;BME280;66384;51.052;9.850;2023-02-01T08:59:02;98594.29;;;3.83;73.90
77323;BME280;66384;51.052;9.850;2023-02-01T09:01:31;98595.55;;;3.84;73.99
77323;BME280;66384;51.052;9.850;2023-02-01T09:04:01;98598.17;;;3.86;74.14
77323;BME280;66384;51.052;9.850;2023-02-01T09:06:30;98598.74;;;3.87;73.94
77323;BME280;66384;51.052;9.850;2023-02-01T09:08:59;98608.35;;;3.89;74.15
77323;BME280;66384;51.052;9.850;2023-02-01T09:11:28;98610.65;;;3.91;73.87
77323;BME280;66384;51.052;9.850;2023-02-01T09:13:57;98605.65;;;3.92;73.77
77323;BME280;66384;51.052;9.850;2023-02-01T09:16:27;98608.69;;;3.95;73.32
77323;BME280;66384;51.052;9.850;2023-02-01T09:18:56;98609.40;;;3.96;73.50
77323;BME280;66384;51.052;9.850;2023-02-01T09:21:25;98608.98;;;3.98;73.49
77323;BME280;66384;51.052;9.850;2023-02-01T09:23:55;98613.20;;;4.00;73.53
77323;BME280;66384;51.052;9.850;2023-02-01T09:26:24;98611.72;;;4.04;73.80
77323;BME280;66384;51.052;9.850;2023-02-01T09:28:54;98612.48;;;4.10;73.75
77323;BME280;66384;51.052;9.850;2023-02-01T09:31:23;98617.55;;;4.13;73.39
77323;BME280;66384;51.052;9.850;2023-02-01T09:33:52;98618.24;;;4.13;73.63
77323;BME280;66384;51.052;9.850;2023-02-01T09:36:22;98621.41;;;4.15;73.29
77323;BME280;66384;51.052;9.850;2023-02-01T09:38:51;98623.06;;;4.14;73.11
77323;BME280;66384;51.052;9.850;2023-02-01T09:41:34;98623.48;;;4.13;73.01
77323;BME280;66384;51.052;9.850;2023-02-01T09:44:14;98620.96;;;4.13;73.38
77323;BME280;66384;51.052;9.850;2023-02-01T09:46:47;98615.80;;;4.15;73.20
77323;BME280;66384;51.052;9.850;2023-02-01T09:49:22;98617.73;;;4.17;73.19
77323;BME280;66384;51.052;9.850;2023-02-01T09:51:53;98615.05;;;4.20;73.20
77323;BME280;66384;51.052;9.850;2023-02-01T09:54:26;98612.88;;;4.24;73.21
77323;BME280;66384;51.052;9.850;2023-02-01T09:57:00;98613.59;;;4.29;73.12
77323;BME280;66384;51.052;9.850;2023-02-01T09:59:39;98616.71;;;4.33;73.02
77323;BME280;66384;51.052;9.850;2023-02-01T10:02:16;98612.70;;;4.38;73.42
77323;BME280;66384;51.052;9.850;2023-02-01T10:04:47;98620.91;;;4.43;73.22
77323;BME280;66384;51.052;9.850;2023-02-01T10:07:25;98612.63;;;4.47;72.98
77323;BME280;66384;51.052;9.850;2023-02-01T10:10:03;98613.57;;;4.52;72.95
77323;BME280;66384;51.052;9.850;2023-02-01T10:12:52;98619.38;;;4.57;72.74
77323;BME280;66384;51.052;9.850;2023-02-01T10:15:30;98617.63;;;4.59;72.62
77323;BME280;66384;51.052;9.850;2023-02-01T10:18:14;98612.55;;;4.64;72.36
77323;BME280;66384;51.052;9.850;2023-02-01T10:20:56;98607.71;;;4.69;72.02
77323;BME280;66384;51.052;9.850;2023-02-01T10:23:38;98599.84;;;4.76;72.18
77323;BME280;66384;51.052;9.850;2023-02-01T10:26:19;98599.11;;;4.82;71.89
77323;BME280;66384;51.052;9.850;2023-02-01T10:28:51;98597.34;;;4.87;71.42
77323;BME280;66384;51.052;9.850;2023-02-01T10:31:23;98598.33;;;4.94;71.35
77323;BME280;66384;51.052;9.850;2023-02-01T10:33:57;98597.70;;;4.99;71.41
77323;BME280;66384;51.052;9.850;2023-02-01T10:36:31;98602.95;;;5.02;70.92
77323;BME280;66384;51.052;9.850;2023-02-01T10:39:04;98596.79;;;5.01;71.12
77323;BME280;66384;51.052;9.850;2023-02-01T10:41:36;98591.67;;;5.01;71.40
77323;BME280;66384;51.052;9.850;2023-02-01T10:44:13;98595.17;;;4.99;71.30
77323;BME280;66384;51.052;9.850;2023-02-01T10:46:43;98593.13;;;4.96;71.40
77323;BME280;66384;51.052;9.850;2023-02-01T10:49:18;98593.61;;;4.91;71.39
77323;BME280;66384;51.052;9.850;2023-02-01T10:51:51;98592.25;;;4.84;70.87
77323;BME280;66384;51.052;9.850;2023-02-01T10:54:31;98589.63;;;4.79;71.41
77323;BME280;66384;51.052;9.850;2023-02-01T10:57:01;98586.69;;;4.74;71.45
77323;BME280;66384;51.052;9.850;2023-02-01T10:59:31;98581.15;;;4.73;71.29
77323;BME280;66384;51.052;9.850;2023-02-01T11:02:19;98583.25;;;4.74;71.53
77323;BME280;66384;51.052;9.850;2023-02-01T11:04:49;98580.79;;;4.76;71.60
77323;BME280;66384;51.052;9.850;2023-02-01T11:07:24;98577.67;;;4.75;71.17
77323;BME280;66384;51.052;9.850;2023-02-01T11:09:55;98575.20;;;4.73;70.70
77323;BME280;66384;51.052;9.850;2023-02-01T11:12:34;98572.97;;;4.73;70.74
77323;BME280;66384;51.052;9.850;2023-02-01T11:15:15;98571.77;;;4.73;71.04
77323;BME280;66384;51.052;9.850;2023-02-01T11:17:49;98570.88;;;4.72;70.58
77323;BME280;66384;51.052;9.850;2023-02-01T11:20:25;98564.81;;;4.73;70.55
77323;BME280;66384;51.052;9.850;2023-02-01T11:23:03;98559.28;;;4.71;70.13
77323;BME280;66384;51.052;9.850;2023-02-01T11:25:33;98554.55;;;4.72;70.24
77323;BME280;66384;51.052;9.850;2023-02-01T11:28:07;98548.52;;;4.74;70.38
77323;BME280;66384;51.052;9.850;2023-02-01T11:30:41;98556.41;;;4.76;70.21
77323;BME280;66384;51.052;9.850;2023-02-01T11:33:15;98550.34;;;4.77;69.90
77323;BME280;66384;51.052;9.850;2023-02-01T11:35:46;98544.11;;;4.78;70.17
77323;BME280;66384;51.052;9.850;2023-02-01T11:38:19;98537.22;;;4.81;69.98
77323;BME280;66384;51.052;9.850;2023-02-01T11:40:49;98526.52;;;4.82;69.84
77323;BME280;66384;51.052;9.850;2023-02-01T11:43:24;98523.30;;;4.82;70.03
77323;BME280;66384;51.052;9.850;2023-02-01T11:45:58;98529.69;;;4.84;69.95
77323;BME280;66384;51.052;9.850;2023-02-01T11:48:29;98528.37;;;4.85;69.55
77323;BME280;66384;51.052;9.850;2023-02-01T11:51:07;98533.00;;;4.85;69.78
77323;BME280;66384;51.052;9.850;2023-02-01T11:53:52;98531.84;;;4.86;69.30
77323;BME280;66384;51.052;9.850;2023-02-01T11:56:30;98534.02;;;4.85;69.06
77323;BME280;66384;51.052;9.850;2023-02-01T11:59:16;98538.34;;;4.83;68.95
77323;BME280;66384;51.052;9.850;2023-02-01T12:02:02;98543.03;;;4.82;69.03
77323;BME280;66384;51.052;9.850;2023-02-01T12:05:03;98541.66;;;4.81;69.05
77323;BME280;66384;51.052;9.850;2023-02-01T12:07:46;98532.94;;;4.80;68.66
77323;BME280;66384;51.052;9.850;2023-02-01T12:10:28;98528.59;;;4.82;68.69
77323;BME280;66384;51.052;9.850;2023-02-01T12:13:12;98520.13;;;4.83;68.18
77323;BME280;66384;51.052;9.850;2023-02-01T12:15:51;98524.41;;;4.84;67.94
77323;BME280;66384;51.052;9.850;2023-02-01T12:18:56;98524.84;;;4.86;67.81
77323;BME280;66384;51.052;9.850;2023-02-01T12:21:38;98511.09;;;4.87;67.76
77323;BME280;66384;51.052;9.850;2023-02-01T12:24:32;98504.04;;;4.89;67.81
77323;BME280;66384;51.052;9.850;2023-02-01T12:27:15;98495.70;;;4.93;67.18
77323;BME280;66384;51.052;9.850;2023-02-01T12:29:59;98492.14;;;4.97;67.18
77323;BME280;66384;51.052;9.850;2023-02-01T12:32:40;98490.30;;;5.02;67.51
77323;BME280;66384;51.052;9.850;2023-02-01T12:35:44;98476.81;;;5.06;66.87
77323;BME280;66384;51.052;9.850;2023-02-01T12:38:29;98478.30;;;5.09;66.72
77323;BME280;66384;51.052;9.850;2023-02-01T12:41:13;98484.33;;;5.10;66.19
77323;BME280;66384;51.052;9.850;2023-02-01T12:43:49;98475.25;;;5.12;66.22
77323;BME280;66384;51.052;9.850;2023-02-01T12:46:26;98474.22;;;5.12;65.70
77323;BME280;66384;51.052;9.850;2023-02-01T12:49:01;98477.39;;;5.11;65.60
77323;BME280;66384;51.052;9.850;2023-02-01T12:51:35;98471.69;;;5.09;65.62
77323;BME280;66384;51.052;9.850;2023-02-01T12:54:09;98465.89;;;5.09;65.58
77323;BME280;66384;51.052;9.850;2023-02-01T12:56:43;98463.30;;;5.09;65.72
77323;BME280;66384;51.052;9.850;2023-02-01T12:59:19;98458.94;;;5.10;65.74
77323;BME280;66384;51.052;9.850;2023-02-01T13:01:55;98458.52;;;5.08;65.38
77323;BME280;66384;51.052;9.850;2023-02-01T13:04:32;98452.45;;;5.06;65.30
77323;BME280;66384;51.052;9.850;2023-02-01T13:07:08;98450.04;;;5.05;65.33
77323;BME280;66384;51.052;9.850;2023-02-01T13:09:45;98434.34;;;5.05;65.71
77323;BME280;66384;51.052;9.850;2023-02-01T13:12:19;98440.32;;;5.05;65.75
77323;BME280;66384;51.052;9.850;2023-02-01T13:14:55;98435.13;;;5.07;65.60
77323;BME280;66384;51.052;9.850;2023-02-01T13:17:29;98429.02;;;5.08;65.22
77323;BME280;66384;51.052;9.850;2023-02-01T13:20:05;98414.44;;;5.06;65.43
77323;BME280;66384;51.052;9.850;2023-02-01T13:22:37;98418.86;;;5.06;65.32
77323;BME280;66384;51.052;9.850;2023-02-01T13:25:13;98412.00;;;5.04;65.50
77323;BME280;66384;51.052;9.850;2023-02-01T13:27:44;98406.85;;;5.04;65.28
77323;BME280;66384;51.052;9.850;2023-02-01T13:30:19;98406.66;;;5.03;65.30
77323;BME280;66384;51.052;9.850;2023-02-01T13:33:06;98390.89;;;5.05;65.41
77323;BME280;66384;51.052;9.850;2023-02-01T13:35:57;98385.24;;;5.09;65.16
77323;BME280;66384;51.052;9.850;2023-02-01T13:38:46;98391.00;;;5.15;64.50
77323;BME280;66384;51.052;9.850;2023-02-01T13:41:29;98389.39;;;5.21;64.09
77323;BME280;66384;51.052;9.850;2023-02-01T13:44:03;98387.21;;;5.23;64.18
77323;BME280;66384;51.052;9.850;2023-02-01T13:46:40;98388.98;;;5.24;64.30
77323;BME280;66384;51.052;9.850;2023-02-01T13:49:16;98392.23;;;5.24;63.92